Weather observations for the past three days for
Colorado Air and Space Port Airport
Imperial (Metric)
Date Time (mdt) Wind (mph) Vis. (mi.) Weather Sky Cond. Temperature (ºF) Relative Humidity Wind Chill (°F) Heat Index (°F) Pressure Precipitation (in)
Air Dwpt 6 hour altimeter (in) sea level (mb) 1 hr 3 hr 6 hr
Max. Min.
04 12:47 NW 10 G 17 10.00 Fair CLR 75.2 15.8 10% 75 29.79 0.0
04 11:47 NW 13 G 24 10.00 Fair CLR 75.2 19.4 12% 75 29.81 0.0
04 10:47 W 16 G 23 10.00 Fair CLR 71.6 19.4 14% 29.83 0.0
04 09:47 W 21 G 26 10.00 Fair and Breezy CLR 71.6 19.4 14% 29.83 0.0
04 08:47 SW 14 10.00 Fair CLR 66.2 19.4 17% 29.84 0.0
04 07:47 SW 10 10.00 Fair CLR 57.2 24.8 29% 29.84 0.0
04 06:47 SW 8 10.00 Fair CLR 51.8 24.8 35% 29.83 0.0
04 06:15 SW 10 10.00 Fair CLR 52.7 23.7 32% 29.83 0.0
04 05:55 SW 10 10.00 Fair CLR 51.3 24.1 58.1 44.4 35% 29.83 0.0
04 05:35 SW 12 10.00 Fair CLR 50.7 25.3 37% 29.83 0.0
04 05:15 SW 9 10.00 Fair CLR 49.6 25.7 39% 46 29.84 0.0
04 04:55 SW 9 10.00 Fair CLR 50.7 25.5 38% 29.84 0.0
04 04:35 SW 9 10.00 Fair CLR 48.6 26.2 42% 45 29.85 0.0
04 04:15 SW 8 10.00 Fair CLR 47.3 26.4 44% 44 29.85 0.0
04 03:55 Calm 10.00 Fair CLR 44.8 26.8 49% 29.85 0.0
04 03:35 SW 6 10.00 Fair CLR 48.7 26.4 42% 47 29.86 0.0
04 03:15 W 9 10.00 Fair CLR 45.9 26.6 47% 42 29.86 0.0
04 02:55 SW 7 10.00 Fair CLR 47.8 26.4 43% 45 29.86 0.0
04 02:35 W 9 10.00 Fair CLR 46.8 25.9 44% 43 29.87 0.0
04 02:15 W 10 10.00 Fair CLR 48 25.2 41% 44 29.87 0.0
04 01:55 W 12 10.00 Fair CLR 48.6 24.6 39% 44 29.87 0.0
04 01:35 W 9 10.00 Fair CLR 50.2 23.7 36% 29.88 0.0
04 01:15 SW 9 10.00 Fair CLR 56.5 23.9 28% 29.87 0.0
04 00:55 SW 10 10.00 Fair CLR 57.9 23.9 27% 29.87 0.0
04 00:15 W 10 G 16 10.00 Fair CLR 57.2 23.2 27% 29.89 0.0
03 23:55 SW 9 10.00 Fair CLR 57 23 69.8 57 27% 29.88 0.0
03 23:35 SW 8 10.00 Fair CLR 60.8 21.9 22% 29.87 0.0
03 22:55 W 8 10.00 Fair CLR 61.3 20.3 20% 29.88 0.0
03 22:35 SW 8 10.00 Fair CLR 63.7 18.5 17% 29.89 0.0
03 22:15 W 3 10.00 Fair CLR 62.1 18.5 18% 29.89 0.0
03 21:55 W 3 10.00 Fair CLR 62.4 18.7 18% 29.89 0.0
03 21:35 W 9 10.00 Fair CLR 64.8 16.3 15% 29.9 0.0
03 21:15 W 10 G 16 10.00 Fair CLR 67.3 15.8 14% 29.89 0.0
03 20:47 W 17 G 26 10.00 Partly Cloudy SCT085 69.8 15.8 12% 29.9 0.0
03 19:47 W 3 10.00 Mostly Cloudy BKN110 64.4 21.2 19% 29.91 0.0
03 18:47 W 7 10.00 Mostly Cloudy BKN095 66.2 17.6 15% 29.92 0.0
03 17:47 NW 9 G 35 10.00 Mostly Cloudy BKN100 71.6 15.8 12% 29.91 0.0
03 16:47 N 12 G 21 10.00 Mostly Cloudy BKN110 71.6 12.2 10% 29.9 0.0
03 15:47 W 14 G 20 10.00 Fair CLR 73.4 10.4 9% 29.91 0.0
03 14:47 W 15 G 24 10.00 Fair CLR 75.2 10.4 8% 74 29.94 0.0
03 13:47 W 8 G 22 10.00 Fair CLR 75.2 6.8 7% 74 29.96 0.0
03 12:47 NW 8 G 22 10.00 Fair CLR 75.2 10.4 8% 74 29.99 0.0
03 11:47 W 14 G 20 10.00 Fair CLR 71.6 14 11% 30.02 0.0
03 10:47 W 14 G 24 10.00 Fair CLR 71.6 15.8 12% 30.04 0.0
03 09:47 W 12 G 17 10.00 Fair CLR 69.8 15.8 12% 30.05 0.0
03 06:47 SW 12 10.00 Fair CLR 53.6 21.2 28% 30.05 0.0
03 06:35 SW 12 10.00 Fair CLR 52.5 20.8 29% 30.04 0.0
03 06:15 SW 12 10.00 Fair CLR 52 20.7 29% 30.03 0.0
03 05:55 SW 9 10.00 Fair CLR 47.8 21.2 55 46.4 35% 44 30.03 0.0
03 05:35 W 9 10.00 Fair CLR 48.4 20.3 33% 45 30.03 0.0
03 05:15 SW 12 10.00 Fair CLR 53.6 19.6 26% 30.03 0.0
03 04:55 SW 13 10.00 Fair CLR 52.9 19.9 27% 30.02 0.0
03 04:35 SW 13 10.00 Fair CLR 52.2 19.8 28% 30.03 0.0
03 04:15 SW 10 10.00 Fair CLR 51.6 19.4 28% 30.03 0.0
03 03:55 SW 10 10.00 Fair CLR 52.2 18.7 27% 30.04 0.0
03 03:35 SW 13 10.00 Fair CLR 50.9 18.5 28% 30.04 0.0
03 03:15 SW 12 10.00 Fair CLR 52.3 17.6 25% 30.04 0.0
03 02:55 SW 12 10.00 Fair CLR 52.3 17.2 25% 30.04 0.0
03 02:35 SW 13 10.00 Fair CLR 52.7 17.2 25% 30.04 0.0
03 02:15 SW 10 10.00 Fair CLR 51.6 18 26% 30.05 0.0
03 01:55 SW 9 10.00 Fair CLR 52.5 17.6 25% 30.05 0.0
03 01:35 SW 12 10.00 Fair CLR 53.4 17.4 24% 30.06 0.0
03 01:15 SW 13 10.00 Fair CLR 54.9 16.7 22% 30.06 0.0
03 00:55 SW 14 10.00 Fair CLR 54.5 16.7 22% 30.06 0.0
03 00:35 SW 14 10.00 Fair CLR 54 16.9 23% 30.06 0.0
03 00:15 S 13 10.00 Fair CLR 53.4 16.7 23% 30.06 0.0
02 23:55 S 12 10.00 Fair CLR 50.4 19.4 71.4 46.4 29% 30.06 0.0
02 23:35 S 12 10.00 Fair CLR 50.9 20.1 30% 30.06 0.0
02 23:15 S 13 10.00 Fair CLR 52.3 19.9 28% 30.07 0.0
02 22:55 S 12 10.00 Fair CLR 50.2 23.2 35% 30.07 0.0
02 22:35 S 12 10.00 Fair CLR 48 24.3 39% 44 30.07 0.0
02 22:15 S 9 10.00 Fair CLR 49.1 23.9 37% 46 30.08 0.0
02 21:55 S 10 10.00 Fair CLR 49.1 22.1 35% 45 30.08 0.0
02 21:35 S 10 10.00 Fair CLR 51.1 21.2 31% 30.07 0.0
02 21:15 S 10 10.00 Fair CLR 52 20.5 29% 30.07 0.0
02 20:47 SE 9 10.00 Fair CLR 53.6 15.8 22% 30.07 0.0
02 19:47 SE 7 10.00 Fair CLR 62.6 8.6 12% 30.06 0.0
02 18:47 S 7 10.00 Fair CLR 69.8 -0.4 6% 30.05 0.0
02 17:47 Calm 10.00 Fair CLR 71.6 -0.4 6% 30.06 0.0
02 15:47 SE 6 10.00 Fair CLR 66.2 8.6 10% 30.15 0.0
02 13:47 SW 8 10.00 Fair CLR 66.2 8.6 10% 30.15 0.0
02 12:47 W 6 10.00 Fair CLR 66.2 8.6 10% 30.18 0.0
02 08:47 SW 9 10.00 Fair CLR 55.4 19.4 24% 30.22 0.0
02 06:47 SW 9 10.00 Fair CLR 42.8 23 46% 38 30.2 0.0
02 06:35 SW 8 10.00 Fair CLR 41 23 49% 36 30.2 0.0
02 06:15 SW 8 10.00 Fair CLR 40.1 23 51% 35 30.2 0.0
02 05:55 SW 7 10.00 Fair CLR 40.1 22.8 46.8 40.1 50% 36 30.2 0.0
02 05:35 SW 9 10.00 Fair CLR 40.1 22.8 50% 35 30.19 0.0
02 05:15 SW 10 10.00 Fair CLR 41.2 22.6 48% 36 30.19 0.0
02 04:55 SW 10 10.00 Fair CLR 41.7 22.5 46% 36 30.19 0.0
02 04:35 SW 12 10.00 Fair CLR 42.3 22.1 45% 36 30.19 0.0
02 04:15 SW 12 10.00 Fair CLR 42.1 22.6 46% 36 30.19 0.0
02 03:55 SW 8 10.00 Fair CLR 41.9 22.8 47% 37 30.18 0.0
02 03:35 SW 8 10.00 Fair CLR 42.4 22.8 46% 38 30.18 0.0
02 03:15 SW 12 10.00 Fair CLR 43.3 23 45% 38 30.18 0.0
02 02:55 SW 10 10.00 Fair CLR 43.5 23 44% 38 30.18 0.0
02 02:35 SW 9 10.00 Fair CLR 43.7 22.6 43% 39 30.18 0.0
02 02:15 SW 10 10.00 Fair CLR 43.7 22.3 43% 39 30.18 0.0
02 01:55 SW 9 10.00 Fair CLR 45.1 21.2 39% 41 30.19 0.0
02 01:35 SW 9 10.00 Fair CLR 45.3 21.4 39% 41 30.19 0.0
02 01:15 SW 9 10.00 Fair CLR 44.6 22.1 41% 40 30.19 0.0
02 00:55 SW 9 10.00 Partly Cloudy SCT100 43.9 21.7 41% 39 30.19 0.0
02 00:35 S 8 10.00 Overcast OVC100 44.4 21.6 40% 40 30.19 0.0
02 00:15 S 9 10.00 Overcast OVC100 44.2 23 43% 40 30.19 0.0
01 23:55 S 9 10.00 Overcast OVC100 44.4 23.2 63 42.1 43% 40 30.19 0.0
01 23:35 S 9 10.00 Overcast OVC100 43.7 22.8 44% 39 30.19 0.0
01 23:15 S 7 10.00 Mostly Cloudy BKN100 44.6 19.2 36% 41 30.19 0.0
01 22:55 SE 5 10.00 Partly Cloudy SCT110 43.2 20.7 41% 41 30.18 0.0
01 22:35 SE 6 10.00 Partly Cloudy SCT100 43 20.5 41% 40 30.18 0.0
01 22:15 SE 5 10.00 Mostly Cloudy BKN110 44.4 18.5 35% 42 30.18 0.0
01 21:55 E 3 10.00 Partly Cloudy SCT110 46.9 16.2 29% 30.18 0.0
01 21:35 E 5 10.00 Fair CLR 50.4 14 23% 30.17 0.0
01 21:15 E 3 10.00 Fair CLR 51.4 12.4 21% 30.16 0.0
01 20:47 NE 3 10.00 Fair CLR 53.6 12.2 19% 30.15 0.0
01 14:47 W 8 10.00 Fair CLR 60.8 10.4 13% 30.13 0.0
01 13:47 NW 12 G 16 10.00 Fair CLR 60.8 12.2 15% 30.14 0.0
Date Time (mdt) Wind (mph) Vis. (mi.) Weather Sky Cond. Air Dwpt Max. Min. Relative Humidity Wind Chill (°F) Heat Index (°F) altimeter (in) sea level (mb) 1 hr 3 hr 6 hr
6 hour
Temperature (ºF) Pressure Precipitation (in)